createdAt,value
2023-02-14T00:01:36.190Z,101891.56
2023-02-14T00:04:04.545Z,101893.56
2023-02-14T00:06:35.422Z,101880.19
2023-02-14T00:09:03.785Z,101869.69
2023-02-14T00:11:31.874Z,101875.97
2023-02-14T00:14:18.845Z,101867.84
2023-02-14T00:16:47.027Z,101863.91
2023-02-14T00:19:17.014Z,101864.31
2023-02-14T00:21:45.350Z,101864.47
2023-02-14T00:24:16.315Z,101860.41
2023-02-14T00:26:45.025Z,101852.69
2023-02-14T00:29:16.652Z,101847.59
2023-02-14T00:31:45.250Z,101845.59
2023-02-14T00:34:13.946Z,101840.53
2023-02-14T00:36:42.069Z,101845.56
2023-02-14T00:39:11.721Z,101842.56
2023-02-14T00:41:40.278Z,101834.09
2023-02-14T00:44:09.209Z,101819.59
2023-02-14T00:46:39.037Z,101814.09
2023-02-14T00:49:07.663Z,101810.97
2023-02-14T00:51:35.791Z,101806.50
2023-02-14T00:54:04.569Z,101800.81
2023-02-14T00:56:33.558Z,101799.22
2023-02-14T00:59:01.736Z,101789.03
2023-02-14T01:01:30.277Z,101790.19
2023-02-14T01:04:00.162Z,101780.22
2023-02-14T01:06:28.778Z,101775.75
2023-02-14T01:08:56.890Z,101762.09
2023-02-14T01:11:26.266Z,101765.16
2023-02-14T01:13:57.041Z,101768.38
2023-02-14T01:16:29.303Z,101744.81
2023-02-14T01:18:59.934Z,101754.38
2023-02-14T01:21:30.574Z,101746.38
2023-02-14T01:24:01.092Z,101746.03
2023-02-14T01:26:30.406Z,101743.31
2023-02-14T01:28:58.871Z,101745.53
2023-02-14T01:31:28.412Z,101750.47
2023-02-14T01:33:56.895Z,101741.94
2023-02-14T01:36:28.059Z,101733.16
2023-02-14T01:38:59.206Z,101735.72
2023-02-14T01:41:29.515Z,101736.13
2023-02-14T01:44:00.604Z,101729.44
2023-02-14T01:46:31.421Z,101728.78
2023-02-14T01:49:05.084Z,101725.72
2023-02-14T01:51:37.119Z,101725.47
2023-02-14T01:54:07.061Z,101738.50
2023-02-14T01:56:39.332Z,101720.00
2023-02-14T01:59:11.581Z,101726.25
2023-02-14T02:01:41.450Z,101725.88
2023-02-14T02:04:13.918Z,101716.88
2023-02-14T02:06:47.051Z,101713.69
2023-02-14T02:09:21.414Z,101705.69
2023-02-14T02:11:50.072Z,101700.41
2023-02-14T02:14:20.282Z,101698.81
2023-02-14T02:17:09.503Z,101677.84
2023-02-14T02:20:10.796Z,101685.41
2023-02-14T02:23:11.425Z,101685.69
2023-02-14T02:26:08.934Z,101680.44
2023-02-14T02:29:20.633Z,101675.53
2023-02-14T02:32:29.173Z,101662.91
2023-02-14T02:35:21.941Z,101670.19
2023-02-14T02:38:06.662Z,101663.66
2023-02-14T02:40:48.733Z,101659.59
2023-02-14T02:43:33.651Z,101669.75
2023-02-14T02:46:23.485Z,101658.38
2023-02-14T02:49:00.819Z,101660.34
2023-02-14T02:51:54.130Z,101667.75
2023-02-14T02:54:31.995Z,101654.38
2023-02-14T02:57:02.082Z,101668.25
2023-02-14T02:59:33.193Z,101668.25
2023-02-14T03:02:07.023Z,101657.50
2023-02-14T03:04:56.126Z,101655.88
2023-02-14T03:07:39.456Z,101652.81
2023-02-14T03:10:13.460Z,101639.00
2023-02-14T03:13:01.543Z,101636.13
2023-02-14T03:15:43.093Z,101639.66
2023-02-14T03:18:43.978Z,101633.56
2023-02-14T03:21:22.428Z,101630.91
2023-02-14T03:23:58.281Z,101625.84
2023-02-14T03:26:36.211Z,101621.94
2023-02-14T03:29:14.247Z,101610.94
2023-02-14T03:31:52.129Z,101609.13
2023-02-14T03:34:28.504Z,101608.16
2023-02-14T03:37:01.232Z,101604.09
2023-02-14T03:39:36.610Z,101598.66
2023-02-14T03:42:09.661Z,101585.06
2023-02-14T03:44:41.053Z,101584.47
2023-02-14T03:47:12.492Z,101587.97
2023-02-14T03:49:45.009Z,101581.06
2023-02-14T03:52:15.788Z,101571.63
2023-02-14T03:54:49.230Z,101573.72
2023-02-14T03:57:24.456Z,101580.47
2023-02-14T03:59:52.920Z,101577.19
2023-02-14T04:02:25.846Z,101566.03
2023-02-14T04:04:55.546Z,101562.94
2023-02-14T04:07:25.602Z,101562.19
2023-02-14T04:09:55.285Z,101557.53
2023-02-14T04:12:36.913Z,101566.53
2023-02-14T04:15:07.148Z,101586.09
2023-02-14T04:17:52.661Z,101589.50
2023-02-14T04:20:21.094Z,101580.22
2023-02-14T04:22:49.437Z,101587.97
2023-02-14T04:25:19.769Z,101580.91
2023-02-14T04:27:48.216Z,101581.09
2023-02-14T04:30:18.142Z,101594.50
2023-02-14T04:32:46.430Z,101601.72
2023-02-14T04:35:14.570Z,101598.66
2023-02-14T04:37:43.077Z,101599.88
2023-02-14T04:40:12.280Z,101604.34
2023-02-14T04:42:41.925Z,101600.88
2023-02-14T04:45:10.491Z,101596.38
2023-02-14T04:47:38.585Z,101591.47
2023-02-14T04:50:08.111Z,101594.31
2023-02-14T04:52:36.400Z,101589.66
2023-02-14T04:55:06.235Z,101598.91
2023-02-14T04:57:34.489Z,101599.94
2023-02-14T05:00:04.022Z,101603.16
2023-02-14T05:02:32.262Z,101596.44
2023-02-14T05:05:00.368Z,101591.16
2023-02-14T05:07:28.879Z,101593.63
2023-02-14T05:09:57.217Z,101591.00
2023-02-14T05:12:25.420Z,101593.25
2023-02-14T05:14:53.607Z,101598.09
2023-02-14T05:17:23.231Z,101598.91
2023-02-14T05:19:51.489Z,101609.81
2023-02-14T05:22:19.691Z,101611.59
2023-02-14T05:24:47.854Z,101615.19
2023-02-14T05:27:15.949Z,101615.53
2023-02-14T05:29:44.176Z,101620.34
2023-02-14T05:32:12.360Z,101624.53
2023-02-14T05:34:41.876Z,101625.66
2023-02-14T05:37:10.089Z,101620.16
2023-02-14T05:39:38.153Z,101620.47
2023-02-14T05:42:06.403Z,101624.94
2023-02-14T05:44:34.499Z,101632.41
2023-02-14T05:47:03.726Z,101622.63
2023-02-14T05:49:31.814Z,101619.47
2023-02-14T05:52:01.246Z,101619.94
2023-02-14T05:54:29.429Z,101630.06
2023-02-14T05:56:57.583Z,101619.59
2023-02-14T05:59:25.700Z,101618.13
2023-02-14T06:01:53.879Z,101622.16
2023-02-14T06:04:22.158Z,101611.16
2023-02-14T06:06:50.314Z,101615.31
2023-02-14T06:09:19.919Z,101613.78
2023-02-14T06:11:48.103Z,101619.69
2023-02-14T06:14:16.309Z,101616.38
2023-02-14T06:16:44.458Z,101605.53
2023-02-14T06:19:12.667Z,101604.66
2023-02-14T06:21:40.771Z,101596.13
2023-02-14T06:24:09.012Z,101594.84
2023-02-14T06:26:38.478Z,101609.22
2023-02-14T06:29:06.555Z,101619.84
2023-02-14T06:31:34.707Z,101607.63
2023-02-14T06:34:03.277Z,101621.81
2023-02-14T06:36:31.646Z,101611.53
2023-02-14T06:38:59.822Z,101612.44
2023-02-14T06:41:27.958Z,101607.06
2023-02-14T06:43:57.514Z,101608.50
2023-02-14T06:46:25.788Z,101609.22
2023-02-14T06:48:53.998Z,101605.53
2023-02-14T06:51:22.082Z,101591.84
2023-02-14T06:53:50.181Z,101585.69
2023-02-14T06:56:18.341Z,101582.00
2023-02-14T06:58:46.448Z,101597.09
2023-02-14T07:01:16.082Z,101590.78
2023-02-14T07:03:44.252Z,101603.78
2023-02-14T07:06:12.446Z,101601.50
2023-02-14T07:08:40.540Z,101601.53
2023-02-14T07:11:08.658Z,101609.94
2023-02-14T07:13:36.770Z,101613.19
2023-02-14T07:16:05.413Z,101601.31
2023-02-14T07:18:34.952Z,101598.91
2023-02-14T07:21:03.474Z,101598.66
2023-02-14T07:23:31.762Z,101584.38
2023-02-14T07:26:01.101Z,101596.78
2023-02-14T07:28:30.463Z,101593.19
2023-02-14T07:31:01.416Z,101589.41
2023-02-14T07:33:30.428Z,101591.63
2023-02-14T07:35:59.986Z,101605.72
2023-02-14T07:38:30.591Z,101604.34
2023-02-14T07:40:59.197Z,101601.69
2023-02-14T07:43:27.519Z,101602.72
2023-02-14T07:45:56.097Z,101614.13
2023-02-14T07:48:25.319Z,101595.41
2023-02-14T07:50:56.677Z,101608.09
2023-02-14T07:53:26.599Z,101590.56
2023-02-14T07:55:54.746Z,101592.16
2023-02-14T07:58:23.121Z,101597.56
2023-02-14T08:00:51.494Z,101592.16
2023-02-14T08:03:19.834Z,101595.56
2023-02-14T08:05:57.281Z,101588.53
2023-02-14T08:08:29.160Z,101584.69
2023-02-14T08:10:57.551Z,101586.72
2023-02-14T08:13:26.078Z,101584.19
2023-02-14T08:16:06.507Z,101573.44
2023-02-14T08:18:37.067Z,101569.56
2023-02-14T08:21:06.776Z,101577.66
2023-02-14T08:23:36.993Z,101564.38
2023-02-14T08:26:05.562Z,101565.25
2023-02-14T08:28:34.989Z,101564.44
2023-02-14T08:31:04.480Z,101565.59
2023-02-14T08:33:32.877Z,101564.88
2023-02-14T08:36:01.389Z,101571.81
2023-02-14T08:38:29.699Z,101568.34
2023-02-14T08:41:05.792Z,101578.91
2023-02-14T08:43:35.756Z,101568.34
2023-02-14T08:46:03.970Z,101565.03
2023-02-14T08:48:32.149Z,101573.03
2023-02-14T08:51:01.049Z,101556.97
2023-02-14T08:53:29.335Z,101561.16
2023-02-14T08:55:57.861Z,101567.13
2023-02-14T08:58:27.517Z,101558.00
2023-02-14T09:00:56.486Z,101548.22
2023-02-14T09:03:24.841Z,101556.59
2023-02-14T09:05:53.059Z,101548.91
2023-02-14T09:08:22.041Z,101554.72
2023-02-14T09:10:50.216Z,101550.81
2023-02-14T09:13:18.369Z,101543.03
2023-02-14T09:15:47.930Z,101545.09
2023-02-14T09:18:16.316Z,101543.13
2023-02-14T09:20:45.533Z,101548.50
2023-02-14T09:23:13.608Z,101532.41
2023-02-14T09:25:41.783Z,101541.91
2023-02-14T09:28:09.878Z,101542.16
2023-02-14T09:30:38.035Z,101539.78
2023-02-14T09:33:07.571Z,101534.03
2023-02-14T09:35:53.503Z,101534.31
2023-02-14T09:38:21.574Z,101534.38
2023-02-14T09:40:50.642Z,101534.16
2023-02-14T09:43:24.930Z,101532.03
2023-02-14T09:45:56.279Z,101531.34
2023-02-14T09:48:32.513Z,101539.84
2023-02-14T09:51:04.288Z,101551.69
2023-02-14T09:53:36.202Z,101542.28
2023-02-14T09:56:13.347Z,101549.66
2023-02-14T09:58:47.450Z,101535.13
2023-02-14T10:01:24.047Z,101530.59
2023-02-14T10:04:17.565Z,101529.31
2023-02-14T10:06:53.637Z,101540.53
2023-02-14T10:09:50.920Z,101523.22
2023-02-14T10:12:25.257Z,101527.84
2023-02-14T10:14:56.679Z,101515.59
2023-02-14T10:17:36.186Z,101507.41
2023-02-14T10:20:12.943Z,101503.13
2023-02-14T10:22:46.212Z,101502.34
2023-02-14T10:25:22.524Z,101501.81
2023-02-14T10:27:51.345Z,101503.22
2023-02-14T10:30:21.399Z,101506.66
2023-02-14T10:32:51.644Z,101491.22
2023-02-14T10:35:36.686Z,101498.97
2023-02-14T10:38:18.667Z,101490.66
2023-02-14T10:41:01.579Z,101490.44
2023-02-14T10:43:41.579Z,101480.53
2023-02-14T10:46:19.825Z,101491.75
2023-02-14T10:48:57.996Z,101477.91
2023-02-14T10:51:35.682Z,101483.50
2023-02-14T10:54:19.065Z,101482.69
2023-02-14T10:56:53.169Z,101474.50
2023-02-14T10:59:27.044Z,101479.78
2023-02-14T11:01:57.596Z,101468.66
2023-02-14T11:04:26.509Z,101475.34
2023-02-14T11:06:56.012Z,101473.50
2023-02-14T11:09:24.622Z,101457.53
2023-02-14T11:11:55.178Z,101454.31
2023-02-14T11:14:26.761Z,101459.34
2023-02-14T11:16:55.930Z,101451.34
2023-02-14T11:19:27.732Z,101453.50
2023-02-14T11:21:59.984Z,101460.66
2023-02-14T11:24:31.533Z,101449.72
2023-02-14T11:27:02.010Z,101452.41
2023-02-14T11:29:32.535Z,101440.94
2023-02-14T11:32:09.376Z,101441.44
2023-02-14T11:34:40.317Z,101438.47
2023-02-14T11:37:27.022Z,101439.06
2023-02-14T11:39:56.994Z,101439.91
2023-02-14T11:43:12.826Z,101440.16
2023-02-14T11:45:43.380Z,101449.22
2023-02-14T11:48:22.355Z,101440.69
2023-02-14T11:51:04.312Z,101429.75
2023-02-14T11:53:45.290Z,101431.97
2023-02-14T11:56:14.480Z,101434.59
2023-02-14T11:58:51.112Z,101426.63
2023-02-14T12:01:25.386Z,101438.09
2023-02-14T12:03:56.369Z,101434.88
2023-02-14T12:06:26.890Z,101423.13
2023-02-14T12:09:12.527Z,101417.81
2023-02-14T12:11:40.910Z,101413.50
2023-02-14T12:14:22.847Z,101417.00
2023-02-14T12:17:02.099Z,101420.28
2023-02-14T12:19:40.362Z,101417.31
2023-02-14T12:22:14.495Z,101418.13
2023-02-14T12:24:55.166Z,101423.22
2023-02-14T12:27:28.434Z,101420.03
2023-02-14T12:30:03.626Z,101413.38
2023-02-14T12:32:33.845Z,101397.88
2023-02-14T12:35:07.645Z,101409.09
2023-02-14T12:38:02.680Z,101401.88
2023-02-14T12:40:47.500Z,101393.34
2023-02-14T12:43:44.182Z,101397.88
2023-02-14T12:46:22.918Z,101389.56
2023-02-14T12:49:09.746Z,101387.66
2023-02-14T12:51:46.940Z,101389.03
2023-02-14T12:54:33.312Z,101387.41
2023-02-14T12:57:09.518Z,101384.50
2023-02-14T12:59:47.950Z,101384.75
2023-02-14T13:02:46.376Z,101382.59
2023-02-14T13:05:26.124Z,101395.97
2023-02-14T13:08:17.968Z,101394.88
2023-02-14T13:10:55.046Z,101395.38
2023-02-14T13:13:34.421Z,101402.09
2023-02-14T13:16:14.303Z,101391.41
2023-02-14T13:18:52.080Z,101394.09
2023-02-14T13:21:24.812Z,101391.63
2023-02-14T13:23:56.119Z,101386.28
2023-02-14T13:26:30.149Z,101388.16
2023-02-14T13:29:04.965Z,101392.69
2023-02-14T13:31:34.460Z,101390.53
2023-02-14T13:34:10.200Z,101402.75
2023-02-14T13:36:38.859Z,101395.81
2023-02-14T13:39:08.210Z,101396.34
2023-02-14T13:41:41.891Z,101394.16
2023-02-14T13:44:11.422Z,101389.94
2023-02-14T13:46:52.325Z,101378.16
2023-02-14T13:49:33.066Z,101381.66
2023-02-14T13:52:03.997Z,101374.72
2023-02-14T13:54:42.206Z,101385.97
2023-02-14T13:57:29.495Z,101393.41
2023-02-14T14:00:31.306Z,101385.16
2023-02-14T14:03:00.851Z,101378.69
2023-02-14T14:05:48.804Z,101371.00
2023-02-14T14:08:41.582Z,101370.81
2023-02-14T14:11:34.005Z,101367.34
2023-02-14T14:14:03.404Z,101367.06
2023-02-14T14:16:35.073Z,101355.84
2023-02-14T14:19:11.707Z,101361.41
2023-02-14T14:21:41.222Z,101372.88
2023-02-14T14:24:21.174Z,101364.28
2023-02-14T14:26:52.045Z,101353.88
2023-02-14T14:29:26.805Z,101361.31
2023-02-14T14:31:56.698Z,101363.72
2023-02-14T14:34:28.756Z,101351.63
2023-02-14T14:37:04.106Z,101352.34
2023-02-14T14:39:36.523Z,101356.03
2023-02-14T14:42:09.839Z,101362.69
2023-02-14T14:44:46.018Z,101361.25
2023-02-14T14:47:18.799Z,101355.03
2023-02-14T14:49:49.053Z,101352.97
2023-02-14T14:52:36.310Z,101357.38
2023-02-14T14:55:07.295Z,101355.72
2023-02-14T14:57:37.886Z,101349.84
2023-02-14T15:00:20.223Z,101342.91
2023-02-14T15:02:59.180Z,101339.38
2023-02-14T15:05:31.055Z,101346.50
2023-02-14T15:07:59.813Z,101349.13
2023-02-14T15:10:30.847Z,101353.50
2023-02-14T15:13:17.905Z,101357.75
2023-02-14T15:15:52.677Z,101366.91
2023-02-14T15:18:22.453Z,101363.72
2023-02-14T15:20:53.356Z,101368.06
2023-02-14T15:23:24.649Z,101369.84
2023-02-14T15:25:53.323Z,101366.66
2023-02-14T15:28:30.230Z,101378.47
2023-02-14T15:31:01.322Z,101381.75
2023-02-14T15:33:31.713Z,101375.56
2023-02-14T15:36:04.577Z,101392.56
2023-02-14T15:38:33.930Z,101388.25
2023-02-14T15:41:02.876Z,101386.56
2023-02-14T15:43:33.332Z,101391.28
2023-02-14T15:46:16.218Z,101389.03
2023-02-14T15:48:45.885Z,101387.22
2023-02-14T15:51:22.167Z,101393.44
2023-02-14T15:53:54.259Z,101396.81
2023-02-14T15:56:26.193Z,101398.94
2023-02-14T15:59:00.990Z,101397.16
2023-02-14T16:01:29.877Z,101395.41
2023-02-14T16:04:00.788Z,101397.72
2023-02-14T16:06:36.969Z,101412.84
2023-02-14T16:09:07.264Z,101407.78
2023-02-14T16:11:37.249Z,101414.06
2023-02-14T16:14:41.124Z,101419.06
2023-02-14T16:17:13.803Z,101424.75
2023-02-14T16:19:44.935Z,101430.47
2023-02-14T16:22:26.621Z,101440.31
2023-02-14T16:24:54.688Z,101432.81
2023-02-14T16:27:22.750Z,101437.91
2023-02-14T16:29:50.866Z,101444.31
2023-02-14T16:32:22.187Z,101444.66
2023-02-14T16:34:51.936Z,101444.16
2023-02-14T16:37:24.074Z,101440.22
2023-02-14T16:39:56.654Z,101444.09
2023-02-14T16:42:25.320Z,101451.25
2023-02-14T16:44:53.851Z,101452.22
2023-02-14T16:47:22.720Z,101461.72
2023-02-14T16:49:53.171Z,101453.75
2023-02-14T16:52:26.839Z,101456.41
2023-02-14T16:54:55.318Z,101456.41
2023-02-14T16:57:27.901Z,101454.31
2023-02-14T16:59:57.395Z,101455.03
2023-02-14T17:02:28.522Z,101454.94
2023-02-14T17:04:57.210Z,101455.19
2023-02-14T17:07:28.071Z,101459.22
2023-02-14T17:09:59.643Z,101451.16
2023-02-14T17:12:31.493Z,101454.06
2023-02-14T17:15:06.132Z,101465.59
2023-02-14T17:17:35.496Z,101463.56
2023-02-14T17:20:04.765Z,101461.97
2023-02-14T17:22:35.055Z,101457.19
2023-02-14T17:25:03.320Z,101463.31
2023-02-14T17:27:31.399Z,101465.75
2023-02-14T17:29:59.832Z,101454.16
2023-02-14T17:32:28.549Z,101456.31
2023-02-14T17:34:57.260Z,101460.50
2023-02-14T17:37:25.477Z,101458.47
2023-02-14T17:39:55.402Z,101468.56
2023-02-14T17:42:23.667Z,101462.84
2023-02-14T17:44:51.768Z,101462.59
2023-02-14T17:47:20.396Z,101463.66
2023-02-14T17:49:48.566Z,101463.50
2023-02-14T17:52:17.495Z,101461.88
2023-02-14T17:54:45.792Z,101460.28
2023-02-14T17:57:15.498Z,101464.75
2023-02-14T17:59:45.477Z,101459.22
2023-02-14T18:02:14.019Z,101467.75
2023-02-14T18:04:42.094Z,101471.38
2023-02-14T18:07:10.186Z,101475.41
2023-02-14T18:09:38.425Z,101480.31
2023-02-14T18:12:07.298Z,101477.25
2023-02-14T18:14:37.188Z,101487.81
2023-02-14T18:17:05.977Z,101479.25
2023-02-14T18:19:34.189Z,101488.06
2023-02-14T18:22:02.652Z,101483.06
2023-02-14T18:24:30.838Z,101480.22
2023-02-14T18:26:58.981Z,101479.97
2023-02-14T18:29:27.196Z,101470.06
2023-02-14T18:31:56.692Z,101478.03
2023-02-14T18:34:25.079Z,101489.06
2023-02-14T18:36:53.278Z,101484.63
2023-02-14T18:39:21.463Z,101493.78
2023-02-14T18:41:49.536Z,101494.00
2023-02-14T18:44:17.823Z,101484.81
2023-02-14T18:46:46.340Z,101481.22
2023-02-14T18:49:16.214Z,101485.09
2023-02-14T18:51:44.312Z,101494.47
2023-02-14T18:54:12.394Z,101498.41
2023-02-14T18:56:40.541Z,101499.81
2023-02-14T18:59:10.934Z,101494.66
2023-02-14T19:01:42.632Z,101500.50
2023-02-14T19:04:12.407Z,101497.31
2023-02-14T19:06:42.837Z,101494.53
2023-02-14T19:09:13.013Z,101501.53
2023-02-14T19:11:41.233Z,101503.25
2023-02-14T19:14:11.174Z,101499.56
2023-02-14T19:16:42.278Z,101500.81
2023-02-14T19:19:11.089Z,101495.63
2023-02-14T19:21:39.254Z,101504.22
2023-02-14T19:24:09.443Z,101500.53
2023-02-14T19:26:40.531Z,101493.06
2023-02-14T19:29:10.842Z,101495.72
2023-02-14T19:31:41.116Z,101499.88
2023-02-14T19:34:16.121Z,101481.97
2023-02-14T19:36:44.718Z,101490.50
2023-02-14T19:39:15.088Z,101494.00
2023-02-14T19:41:43.554Z,101483.31
2023-02-14T19:44:13.888Z,101493.44
2023-02-14T19:46:43.488Z,101490.66
2023-02-14T19:49:15.289Z,101495.66
2023-02-14T19:51:43.570Z,101485.31
2023-02-14T19:54:15.595Z,101484.28
2023-02-14T19:56:46.247Z,101486.22
2023-02-14T19:59:20.222Z,101484.84
2023-02-14T20:01:50.591Z,101492.56
2023-02-14T20:04:20.898Z,101497.63
2023-02-14T20:06:49.823Z,101496.47
2023-02-14T20:09:21.817Z,101497.38
2023-02-14T20:11:51.441Z,101498.66
2023-02-14T20:14:21.429Z,101498.00
2023-02-14T20:16:50.121Z,101501.44
2023-02-14T20:19:21.445Z,101509.75
2023-02-14T20:21:52.105Z,101500.28
2023-02-14T20:24:23.661Z,101503.16
2023-02-14T20:26:52.776Z,101513.44
2023-02-14T20:29:21.951Z,101514.69
2023-02-14T20:31:52.668Z,101516.53
2023-02-14T20:34:21.063Z,101513.53
2023-02-14T20:36:53.284Z,101511.69
2023-02-14T20:39:24.400Z,101515.03
2023-02-14T20:41:54.058Z,101505.72
2023-02-14T20:44:22.569Z,101513.88
2023-02-14T20:46:52.271Z,101509.75
2023-02-14T20:49:20.956Z,101514.38
2023-02-14T20:51:50.816Z,101518.88
2023-02-14T20:54:20.100Z,101521.28
2023-02-14T20:56:50.837Z,101520.38
2023-02-14T20:59:24.394Z,101521.19
2023-02-14T21:01:52.515Z,101529.47
2023-02-14T21:04:20.844Z,101531.44
2023-02-14T21:06:51.166Z,101522.22
2023-02-14T21:09:20.934Z,101525.19
2023-02-14T21:11:50.831Z,101522.69
2023-02-14T21:14:19.083Z,101528.22
2023-02-14T21:16:47.298Z,101544.50
2023-02-14T21:19:15.708Z,101541.16
2023-02-14T21:21:43.794Z,101545.41
2023-02-14T21:24:13.266Z,101549.91
2023-02-14T21:26:41.862Z,101553.81
2023-02-14T21:29:11.694Z,101558.00
2023-02-14T21:31:40.519Z,101555.53
2023-02-14T21:34:08.743Z,101553.00
2023-02-14T21:36:37.234Z,101550.47
2023-02-14T21:39:07.411Z,101551.63
2023-02-14T21:41:36.408Z,101550.47
2023-02-14T21:44:05.465Z,101550.38
2023-02-14T21:46:38.516Z,101564.66
2023-02-14T21:49:24.671Z,101563.63
2023-02-14T21:51:52.814Z,101576.78
2023-02-14T21:54:21.328Z,101575.16
2023-02-14T21:56:50.456Z,101575.94
2023-02-14T21:59:18.966Z,101576.53
2023-02-14T22:01:48.633Z,101569.97
2023-02-14T22:04:16.717Z,101575.38
2023-02-14T22:06:45.226Z,101575.38
2023-02-14T22:09:18.799Z,101566.84
2023-02-14T22:11:47.638Z,101560.97
2023-02-14T22:14:16.018Z,101569.16
2023-02-14T22:16:44.318Z,101563.38
2023-02-14T22:19:16.317Z,101562.47
2023-02-14T22:21:45.020Z,101563.72
2023-02-14T22:24:13.806Z,101571.56
2023-02-14T22:26:42.472Z,101566.97
2023-02-14T22:29:12.421Z,101563.03
2023-02-14T22:31:42.929Z,101569.03
2023-02-14T22:34:15.113Z,101570.28
2023-02-14T22:36:43.265Z,101571.44
2023-02-14T22:39:14.504Z,101574.56
2023-02-14T22:41:42.550Z,101584.72
2023-02-14T22:44:11.385Z,101580.47
2023-02-14T22:46:39.664Z,101581.72
2023-02-14T22:49:08.554Z,101574.00
2023-02-14T22:51:39.343Z,101581.72
2023-02-14T22:54:12.406Z,101583.78
2023-02-14T22:56:42.528Z,101584.13
2023-02-14T22:59:15.761Z,101586.00
2023-02-14T23:01:44.146Z,101589.22
2023-02-14T23:04:13.245Z,101584.28
2023-02-14T23:06:43.078Z,101584.28
2023-02-14T23:09:12.876Z,101578.38
2023-02-14T23:11:42.501Z,101580.22
2023-02-14T23:14:30.545Z,101586.78
2023-02-14T23:17:16.142Z,101581.81
2023-02-14T23:20:02.465Z,101588.88
2023-02-14T23:22:34.166Z,101587.81
2023-02-14T23:25:04.703Z,101577.59
2023-02-14T23:27:34.648Z,101586.44
2023-02-14T23:30:03.076Z,101588.66
2023-02-14T23:32:31.268Z,101580.47
2023-02-14T23:35:00.102Z,101587.81
2023-02-14T23:37:28.269Z,101579.41
2023-02-14T23:39:57.806Z,101572.50
2023-02-14T23:42:26.185Z,101584.59
2023-02-14T23:44:54.873Z,101591.97
2023-02-14T23:47:22.990Z,101584.72
2023-02-14T23:49:51.093Z,101589.78
2023-02-14T23:52:19.357Z,101594.38
2023-02-14T23:54:47.461Z,101588.28
2023-02-14T23:57:16.995Z,101588.75
2023-02-14T23:59:45.186Z,101596.25
